createdAt,value
2023-05-10T00:00:30.354Z,14.82
2023-05-10T00:02:57.767Z,13.88
2023-05-10T00:05:24.653Z,14.38
2023-05-10T00:07:51.643Z,14.07
2023-05-10T00:10:18.771Z,14.13
2023-05-10T00:12:45.810Z,14.40
2023-05-10T00:15:12.752Z,14.80
2023-05-10T00:17:39.883Z,14.75
2023-05-10T00:20:07.421Z,14.45
2023-05-10T00:22:34.303Z,15.82
2023-05-10T00:25:01.072Z,15.38
2023-05-10T00:27:27.889Z,15.15
2023-05-10T00:29:54.628Z,14.70
2023-05-10T00:32:21.711Z,16.15
2023-05-10T00:34:48.763Z,15.80
2023-05-10T00:37:15.628Z,15.90
2023-05-10T00:39:42.409Z,15.90
2023-05-10T00:42:09.296Z,16.10
2023-05-10T00:44:36.240Z,16.65
2023-05-10T00:47:04.965Z,15.75
2023-05-10T00:49:32.258Z,16.17
2023-05-10T00:51:59.186Z,16.77
2023-05-10T00:54:26.065Z,16.15
2023-05-10T00:56:53.196Z,16.52
2023-05-10T00:59:20.637Z,16.42
2023-05-10T01:01:47.707Z,12.77
2023-05-10T01:04:15.752Z,16.30
2023-05-10T01:06:43.497Z,16.85
2023-05-10T01:09:12.783Z,16.30
2023-05-10T01:11:40.833Z,15.75
2023-05-10T01:14:07.967Z,16.60
2023-05-10T01:16:40.314Z,16.13
2023-05-10T01:19:18.172Z,15.95
2023-05-10T01:21:53.217Z,13.25
2023-05-10T01:24:57.498Z,14.60
2023-05-10T01:27:41.861Z,14.95
2023-05-10T01:30:18.122Z,15.15
2023-05-10T01:33:11.666Z,13.75
2023-05-10T01:35:50.569Z,15.93
2023-05-10T01:38:44.342Z,15.48
2023-05-10T01:41:42.678Z,16.02
2023-05-10T01:44:12.447Z,16.50
2023-05-10T01:46:41.245Z,16.27
2023-05-10T01:49:25.042Z,12.57
2023-05-10T01:51:58.302Z,15.52
2023-05-10T01:54:25.702Z,12.82
2023-05-10T01:57:06.547Z,16.20
2023-05-10T01:59:42.647Z,16.17
2023-05-10T02:02:13.668Z,16.42
2023-05-10T02:04:41.962Z,13.75
2023-05-10T02:07:10.658Z,17.27
2023-05-10T02:09:39.248Z,16.20
2023-05-10T02:12:07.874Z,17.30
2023-05-10T02:14:37.791Z,16.17
2023-05-10T02:17:09.386Z,17.75
2023-05-10T02:19:38.888Z,17.83
2023-05-10T02:22:07.241Z,16.65
2023-05-10T02:24:36.014Z,14.90
2023-05-10T02:27:04.695Z,14.95
2023-05-10T02:29:32.864Z,17.58
2023-05-10T02:32:00.987Z,18.27
2023-05-10T02:34:29.366Z,16.60
2023-05-10T02:36:57.365Z,19.10
2023-05-10T02:39:25.820Z,17.48
2023-05-10T02:41:54.810Z,15.75
2023-05-10T02:44:22.680Z,15.52
2023-05-10T02:46:49.726Z,14.18
2023-05-10T02:49:17.199Z,14.88
2023-05-10T02:51:51.246Z,10.48
2023-05-10T02:54:24.540Z,17.17
2023-05-10T02:56:57.394Z,21.30
2023-05-10T02:59:24.372Z,21.73
2023-05-10T03:01:51.382Z,10.40
2023-05-10T03:04:18.690Z,19.63
2023-05-10T03:06:45.946Z,21.55
2023-05-10T03:09:16.670Z,21.15
2023-05-10T03:12:10.643Z,19.83
2023-05-10T03:14:51.202Z,17.20
2023-05-10T03:17:29.682Z,20.13
2023-05-10T03:19:59.031Z,14.40
2023-05-10T03:23:12.711Z,21.92
2023-05-10T03:25:41.446Z,21.63
2023-05-10T03:28:09.741Z,22.45
2023-05-10T03:30:37.516Z,20.10
2023-05-10T03:33:07.920Z,19.77
2023-05-10T03:35:35.160Z,20.48
2023-05-10T03:38:02.764Z,14.15
2023-05-10T03:40:32.467Z,19.70
2023-05-10T03:42:59.974Z,19.90
2023-05-10T03:45:27.003Z,18.40
2023-05-10T03:47:55.174Z,19.80
2023-05-10T03:50:22.790Z,18.83
2023-05-10T03:52:49.772Z,19.60
2023-05-10T03:55:17.327Z,17.55
2023-05-10T03:57:44.384Z,16.45
2023-05-10T04:00:11.739Z,17.90
2023-05-10T04:02:38.797Z,15.70
2023-05-10T04:05:06.342Z,18.55
2023-05-10T04:07:34.213Z,17.17
2023-05-10T04:10:01.306Z,18.58
2023-05-10T04:12:28.258Z,19.20
2023-05-10T04:14:55.773Z,18.02
2023-05-10T04:17:22.724Z,17.95
2023-05-10T04:19:49.484Z,17.92
2023-05-10T04:22:17.062Z,19.10
2023-05-10T04:24:44.057Z,17.67
2023-05-10T04:27:12.433Z,17.38
2023-05-10T04:29:39.434Z,16.15
2023-05-10T04:32:06.487Z,13.43
2023-05-10T04:34:35.217Z,16.73
2023-05-10T04:37:02.482Z,16.83
2023-05-10T04:39:29.320Z,16.63
2023-05-10T04:41:56.166Z,14.60
2023-05-10T04:44:22.915Z,17.80
2023-05-10T04:46:49.805Z,14.73
2023-05-10T04:49:17.090Z,17.63
2023-05-10T04:51:43.884Z,17.05
2023-05-10T04:54:11.260Z,17.73
2023-05-10T04:56:38.337Z,17.77
2023-05-10T04:59:05.551Z,15.07
2023-05-10T05:01:32.608Z,18.95
2023-05-10T05:04:00.566Z,17.25
2023-05-10T05:06:28.424Z,18.33
2023-05-10T05:08:55.313Z,16.42
2023-05-10T05:11:23.576Z,15.25
2023-05-10T05:13:52.576Z,20.73
2023-05-10T05:16:19.777Z,19.13
2023-05-10T05:18:47.760Z,20.60
2023-05-10T05:21:17.794Z,17.85
2023-05-10T05:23:44.902Z,19.98
2023-05-10T05:26:11.929Z,19.35
2023-05-10T05:28:39.962Z,18.83
2023-05-10T05:31:08.786Z,20.15
2023-05-10T05:33:35.875Z,19.75
2023-05-10T05:36:03.787Z,21.05
2023-05-10T05:38:30.603Z,21.45
2023-05-10T05:40:58.985Z,20.58
2023-05-10T05:43:26.369Z,19.88
2023-05-10T05:45:59.578Z,22.02
2023-05-10T05:48:28.649Z,18.52
2023-05-10T05:50:58.423Z,19.35
2023-05-10T05:53:26.826Z,17.52
2023-05-10T05:55:59.436Z,20.70
2023-05-10T05:58:27.165Z,20.02
2023-05-10T06:00:58.649Z,19.83
2023-05-10T06:03:28.700Z,20.98
2023-05-10T06:05:57.553Z,20.40
2023-05-10T06:08:29.368Z,16.30
2023-05-10T06:13:24.198Z,15.63
2023-05-10T06:15:51.337Z,12.95
2023-05-10T06:18:18.410Z,15.07
2023-05-10T06:20:45.482Z,16.67
2023-05-10T06:23:12.386Z,16.55
2023-05-10T06:25:39.076Z,18.08
2023-05-10T06:28:06.114Z,17.40
2023-05-10T06:30:32.840Z,17.63
2023-05-10T06:32:59.871Z,17.77
2023-05-10T06:35:26.793Z,16.95
2023-05-10T06:37:54.214Z,17.25
2023-05-10T06:40:21.502Z,18.60
2023-05-10T06:42:49.351Z,17.83
2023-05-10T06:45:16.983Z,17.13
2023-05-10T06:47:44.317Z,17.00
2023-05-10T06:50:12.539Z,15.45
2023-05-10T06:52:39.705Z,14.52
2023-05-10T06:55:09.429Z,12.82
2023-05-10T06:57:37.761Z,13.27
2023-05-10T07:00:06.042Z,12.32
2023-05-10T07:02:34.640Z,11.02
2023-05-10T07:05:06.135Z,11.77
2023-05-10T07:07:37.716Z,10.05
2023-05-10T07:10:07.811Z,9.50
2023-05-10T07:12:39.286Z,8.98
2023-05-10T07:15:07.405Z,8.63
2023-05-10T07:17:37.546Z,7.30
2023-05-10T07:20:05.748Z,7.30
2023-05-10T07:22:32.633Z,7.75
2023-05-10T07:24:59.537Z,7.03
2023-05-10T07:27:29.245Z,7.03
2023-05-10T07:29:57.059Z,6.97
2023-05-10T07:32:26.127Z,6.90
2023-05-10T07:34:56.020Z,7.30
2023-05-10T07:37:22.818Z,7.38
2023-05-10T07:39:49.800Z,6.50
2023-05-10T07:42:16.914Z,7.47
2023-05-10T07:44:44.360Z,7.50
2023-05-10T07:47:14.425Z,8.90
2023-05-10T07:49:50.195Z,7.00
2023-05-10T07:52:17.277Z,7.05
2023-05-10T07:54:45.865Z,6.90
2023-05-10T07:57:15.569Z,7.25
2023-05-10T07:59:43.128Z,7.55
2023-05-10T08:02:10.167Z,7.55
2023-05-10T08:04:38.630Z,7.40
2023-05-10T08:07:07.553Z,7.18
2023-05-10T08:09:35.066Z,7.13
2023-05-10T08:12:01.899Z,7.07
2023-05-10T08:14:30.446Z,7.30
2023-05-10T08:16:58.407Z,7.00
2023-05-10T08:19:27.668Z,7.18
2023-05-10T08:21:56.662Z,6.93
2023-05-10T08:24:31.177Z,6.72
2023-05-10T08:26:58.472Z,6.45
2023-05-10T08:29:26.637Z,6.60
2023-05-10T08:31:56.215Z,6.88
2023-05-10T08:34:23.348Z,6.80
2023-05-10T08:36:50.754Z,6.88
2023-05-10T08:39:29.896Z,6.78
2023-05-10T08:42:02.776Z,6.70
2023-05-10T08:44:36.532Z,7.32
2023-05-10T08:47:14.886Z,7.00
2023-05-10T08:49:43.885Z,6.35
2023-05-10T08:52:14.263Z,6.85
2023-05-10T08:54:41.975Z,7.38
2023-05-10T08:57:09.341Z,7.28
2023-05-10T08:59:39.707Z,7.50
2023-05-10T09:02:07.481Z,7.00
2023-05-10T09:04:36.684Z,6.93
2023-05-10T09:07:03.920Z,7.38
2023-05-10T09:09:31.434Z,6.80
2023-05-10T09:11:58.325Z,7.45
2023-05-10T09:14:26.171Z,6.75
2023-05-10T09:16:55.978Z,6.20
2023-05-10T09:19:22.851Z,6.10
2023-05-10T09:21:50.518Z,5.57
2023-05-10T09:24:21.810Z,5.45
2023-05-10T09:26:49.887Z,5.68
2023-05-10T09:29:17.846Z,4.18
2023-05-10T09:31:53.816Z,4.93
2023-05-10T09:34:41.535Z,4.40
2023-05-10T09:37:09.564Z,4.20
2023-05-10T09:39:38.447Z,4.55
2023-05-10T09:42:08.010Z,4.75
2023-05-10T09:44:36.495Z,4.85
2023-05-10T09:47:08.443Z,4.57
2023-05-10T09:49:37.693Z,4.35
2023-05-10T09:52:09.036Z,4.70
2023-05-10T09:54:39.010Z,3.55
2023-05-10T09:57:38.439Z,3.95
2023-05-10T10:00:13.505Z,4.03
2023-05-10T10:02:42.907Z,3.00
2023-05-10T10:05:20.303Z,3.30
2023-05-10T10:07:47.985Z,3.42
2023-05-10T10:13:03.395Z,3.63
2023-05-10T10:15:45.214Z,3.67
2023-05-10T10:18:18.757Z,3.70
2023-05-10T10:20:47.383Z,4.45
2023-05-10T10:23:17.927Z,4.55
2023-05-10T10:25:51.005Z,4.63
2023-05-10T10:29:09.056Z,4.32
2023-05-10T10:31:58.238Z,4.40
2023-05-10T10:34:31.610Z,4.10
2023-05-10T10:37:04.798Z,4.50
2023-05-10T10:39:32.034Z,4.22
2023-05-10T10:42:00.332Z,4.32
2023-05-10T10:44:32.396Z,4.43
2023-05-10T10:50:03.357Z,4.07
2023-05-10T10:52:37.684Z,4.30
2023-05-10T10:55:26.174Z,4.43
2023-05-10T10:58:02.043Z,4.10
2023-05-10T11:00:40.417Z,4.10
2023-05-10T11:03:20.161Z,4.03
2023-05-10T11:05:53.486Z,3.90
2023-05-10T11:09:01.594Z,3.25
2023-05-10T11:11:29.895Z,3.35
2023-05-10T11:14:06.957Z,3.65
2023-05-10T11:16:46.420Z,3.90
2023-05-10T11:19:16.539Z,3.70
2023-05-10T11:22:13.879Z,3.72
2023-05-10T11:24:42.138Z,3.35
2023-05-10T11:27:12.478Z,4.10
2023-05-10T11:29:39.776Z,3.78
2023-05-10T11:32:09.681Z,3.78
2023-05-10T11:34:36.555Z,3.70
2023-05-10T11:37:04.750Z,3.33
2023-05-10T11:39:33.643Z,3.40
2023-05-10T11:42:07.595Z,3.28
2023-05-10T11:44:37.363Z,3.03
2023-05-10T11:47:12.658Z,3.28
2023-05-10T11:49:41.292Z,3.00
2023-05-10T11:52:14.792Z,2.80
2023-05-10T11:54:58.911Z,2.90
2023-05-10T11:57:29.689Z,2.70
2023-05-10T12:00:01.156Z,2.80
2023-05-10T12:02:29.182Z,2.72
2023-05-10T12:04:57.464Z,2.90
2023-05-10T12:07:26.012Z,2.65
2023-05-10T12:10:16.172Z,2.50
2023-05-10T12:12:45.917Z,2.53
2023-05-10T12:15:20.847Z,2.50
2023-05-10T12:17:48.654Z,2.40
2023-05-10T12:20:17.824Z,2.65
2023-05-10T12:23:00.706Z,2.47
2023-05-10T12:25:36.796Z,2.30
2023-05-10T12:28:23.888Z,2.40
2023-05-10T12:30:55.457Z,2.47
2023-05-10T12:33:33.167Z,2.28
2023-05-10T12:36:06.080Z,2.20
2023-05-10T12:38:40.764Z,2.00
2023-05-10T12:41:17.195Z,2.30
2023-05-10T12:43:59.484Z,2.30
2023-05-10T12:49:08.658Z,2.15
2023-05-10T12:51:43.613Z,2.15
2023-05-10T12:54:13.220Z,2.42
2023-05-10T12:56:42.878Z,2.30
2023-05-10T12:59:10.559Z,2.10
2023-05-10T13:01:38.402Z,2.60
2023-05-10T13:04:08.300Z,2.83
2023-05-10T13:06:37.754Z,2.47
2023-05-10T13:09:05.132Z,2.90
2023-05-10T13:11:32.486Z,2.72
2023-05-10T13:14:01.530Z,3.05
2023-05-10T13:16:29.519Z,2.17
2023-05-10T13:18:57.032Z,3.30
2023-05-10T13:21:26.113Z,3.00
2023-05-10T13:23:53.105Z,3.00
2023-05-10T13:26:21.527Z,3.10
2023-05-10T13:28:49.992Z,3.20
2023-05-10T13:31:16.846Z,2.50
2023-05-10T13:33:45.385Z,3.10
2023-05-10T13:36:12.125Z,3.13
2023-05-10T13:38:39.227Z,3.40
2023-05-10T13:41:06.017Z,2.78
2023-05-10T13:43:32.860Z,2.70
2023-05-10T13:46:02.372Z,3.38
2023-05-10T13:48:32.591Z,3.75
2023-05-10T13:50:59.394Z,3.33
2023-05-10T13:53:26.327Z,3.40
2023-05-10T13:55:54.347Z,3.50
2023-05-10T13:58:21.702Z,3.10
2023-05-10T14:01:02.321Z,4.10
2023-05-10T14:03:31.016Z,3.63
2023-05-10T14:05:59.023Z,3.60
2023-05-10T14:08:28.017Z,3.80
2023-05-10T14:11:06.761Z,3.92
2023-05-10T14:13:36.862Z,4.70
2023-05-10T14:16:04.197Z,3.97
2023-05-10T14:18:31.701Z,4.60
2023-05-10T14:20:59.637Z,4.85
2023-05-10T14:23:27.750Z,4.90
2023-05-10T14:25:54.698Z,5.10
2023-05-10T14:28:22.106Z,4.97
2023-05-10T14:30:49.011Z,4.80
2023-05-10T14:33:16.118Z,4.72
2023-05-10T14:35:43.451Z,4.70
2023-05-10T14:38:11.750Z,4.95
2023-05-10T14:40:38.833Z,5.40
2023-05-10T14:43:05.698Z,4.82
2023-05-10T14:45:32.560Z,4.65
2023-05-10T14:48:00.238Z,5.20
2023-05-10T14:50:36.513Z,5.00
2023-05-10T14:53:07.093Z,5.20
2023-05-10T14:55:33.929Z,5.45
2023-05-10T14:58:03.025Z,5.35
2023-05-10T15:00:31.578Z,4.75
2023-05-10T15:03:02.136Z,5.00
2023-05-10T15:05:33.756Z,4.80
2023-05-10T15:08:10.975Z,4.85
2023-05-10T15:10:37.914Z,5.00
2023-05-10T15:13:05.673Z,5.10
2023-05-10T15:15:33.674Z,4.80
2023-05-10T15:18:00.999Z,4.85
2023-05-10T15:20:29.928Z,4.60
2023-05-10T15:22:56.938Z,4.70
2023-05-10T15:25:25.678Z,4.68
2023-05-10T15:27:52.704Z,4.90
2023-05-10T15:30:19.500Z,4.05
2023-05-10T15:32:46.382Z,4.25
2023-05-10T15:35:13.867Z,4.20
2023-05-10T15:37:40.853Z,4.20
2023-05-10T15:40:07.921Z,4.43
2023-05-10T15:42:36.656Z,4.50
2023-05-10T15:45:12.713Z,3.80
2023-05-10T15:47:40.940Z,4.07
2023-05-10T15:50:08.528Z,4.07
2023-05-10T15:52:36.360Z,3.42
2023-05-10T15:55:04.316Z,4.28
2023-05-10T15:57:31.227Z,3.70
2023-05-10T16:00:00.092Z,4.43
2023-05-10T16:02:27.279Z,4.00
2023-05-10T16:04:55.442Z,4.10
2023-05-10T16:07:22.666Z,3.60
2023-05-10T16:09:51.522Z,3.33
2023-05-10T16:12:18.505Z,3.78
2023-05-10T16:14:50.187Z,4.13
2023-05-10T16:17:20.780Z,4.18
2023-05-10T16:19:47.745Z,3.22
2023-05-10T16:22:15.940Z,3.85
2023-05-10T16:24:42.728Z,4.15
2023-05-10T16:27:11.259Z,4.13
2023-05-10T16:29:38.465Z,4.18
2023-05-10T16:32:08.019Z,3.70
2023-05-10T16:34:36.259Z,3.63
2023-05-10T16:37:03.804Z,3.53
2023-05-10T16:39:30.557Z,4.10
2023-05-10T16:41:58.871Z,3.58
2023-05-10T16:44:26.989Z,3.80
2023-05-10T16:46:55.369Z,3.30
2023-05-10T16:49:26.224Z,3.22
2023-05-10T16:51:54.481Z,3.38
2023-05-10T16:54:23.486Z,3.20
2023-05-10T16:56:51.830Z,2.72
2023-05-10T16:59:19.991Z,2.50
2023-05-10T17:01:47.365Z,2.38
2023-05-10T17:04:15.574Z,2.55
2023-05-10T17:06:43.684Z,2.30
2023-05-10T17:09:13.986Z,2.30
2023-05-10T17:11:44.809Z,2.42
2023-05-10T17:14:13.845Z,2.25
2023-05-10T17:16:41.738Z,2.42
2023-05-10T17:19:11.963Z,2.17
2023-05-10T17:21:45.903Z,2.40
2023-05-10T17:24:15.093Z,2.67
2023-05-10T17:26:45.774Z,2.50
2023-05-10T17:29:14.100Z,2.42
2023-05-10T17:31:42.345Z,2.63
2023-05-10T17:34:10.707Z,2.63
2023-05-10T17:36:38.219Z,2.60
2023-05-10T17:39:05.817Z,2.53
2023-05-10T17:41:36.143Z,2.65
2023-05-10T17:44:03.114Z,2.78
2023-05-10T17:46:30.352Z,3.10
2023-05-10T17:49:09.866Z,3.20
2023-05-10T17:51:40.459Z,3.00
2023-05-10T17:54:07.351Z,2.90
2023-05-10T17:56:36.655Z,2.88
2023-05-10T17:59:04.981Z,2.90
2023-05-10T18:01:31.688Z,2.78
2023-05-10T18:04:00.229Z,2.83
2023-05-10T18:09:08.603Z,3.10
2023-05-10T18:11:37.267Z,2.97
2023-05-10T18:14:04.994Z,3.13
2023-05-10T18:16:31.795Z,3.15
2023-05-10T18:18:59.012Z,3.40
2023-05-10T18:21:25.976Z,3.33
2023-05-10T18:23:52.936Z,3.38
2023-05-10T18:26:20.760Z,3.40
2023-05-10T18:28:47.705Z,3.40
2023-05-10T18:31:14.881Z,3.40
2023-05-10T18:33:42.189Z,3.28
2023-05-10T18:36:10.953Z,3.05
2023-05-10T18:38:40.480Z,3.00
2023-05-10T18:41:12.333Z,3.55
2023-05-10T18:43:39.150Z,3.33
2023-05-10T18:46:06.454Z,3.22
2023-05-10T18:48:33.615Z,3.20
2023-05-10T18:51:01.708Z,3.00
2023-05-10T18:53:33.105Z,3.40
2023-05-10T18:56:01.540Z,2.92
2023-05-10T18:58:29.718Z,3.10
2023-05-10T19:00:57.063Z,3.28
2023-05-10T19:03:23.878Z,3.47
2023-05-10T19:05:54.352Z,3.42
2023-05-10T19:08:25.991Z,3.53
2023-05-10T19:10:55.284Z,3.45
2023-05-10T19:13:24.951Z,3.47
2023-05-10T19:16:20.811Z,3.80
2023-05-10T19:18:48.122Z,3.55
2023-05-10T19:21:17.314Z,3.85
2023-05-10T19:23:49.485Z,3.90
2023-05-10T19:28:44.015Z,4.03
2023-05-10T19:31:11.181Z,4.20
2023-05-10T19:33:38.364Z,4.10
2023-05-10T19:36:05.660Z,4.30
2023-05-10T19:38:33.621Z,4.57
2023-05-10T19:41:00.473Z,4.40
2023-05-10T19:43:28.533Z,4.50
2023-05-10T19:45:59.027Z,3.95
2023-05-10T19:48:26.571Z,4.25
2023-05-10T19:50:57.104Z,4.35
2023-05-10T19:53:25.637Z,4.25
2023-05-10T19:55:56.525Z,4.53
2023-05-10T19:58:25.367Z,4.57
2023-05-10T20:00:53.009Z,4.85
2023-05-10T20:03:19.878Z,4.70
2023-05-10T20:05:47.781Z,4.72
2023-05-10T20:08:14.967Z,4.70
2023-05-10T20:10:43.214Z,4.72
2023-05-10T20:13:10.064Z,5.03
2023-05-10T20:15:37.262Z,4.50
2023-05-10T20:18:04.737Z,5.15
2023-05-10T20:20:32.528Z,4.75
2023-05-10T20:22:59.375Z,5.10
2023-05-10T20:25:26.443Z,4.97
2023-05-10T20:27:56.149Z,5.10
2023-05-10T20:30:24.420Z,4.68
2023-05-10T20:32:52.130Z,5.15
2023-05-10T20:35:23.533Z,5.13
2023-05-10T20:37:52.063Z,5.13
2023-05-10T20:40:20.531Z,4.85
2023-05-10T20:42:56.744Z,5.00
2023-05-10T20:45:23.616Z,5.00
2023-05-10T20:47:50.738Z,5.10
2023-05-10T20:50:18.840Z,4.90
2023-05-10T20:52:51.605Z,4.60
2023-05-10T20:55:19.251Z,5.13
2023-05-10T20:57:47.346Z,4.90
2023-05-10T21:00:15.481Z,5.22
2023-05-10T21:02:44.768Z,5.10
2023-05-10T21:05:12.314Z,5.00
2023-05-10T21:07:40.018Z,5.10
2023-05-10T21:10:11.414Z,5.10
2023-05-10T21:12:39.651Z,5.60
2023-05-10T21:15:09.764Z,5.53
2023-05-10T21:17:40.281Z,5.90
2023-05-10T21:20:09.322Z,5.47
2023-05-10T21:22:39.015Z,5.55
2023-05-10T21:25:06.464Z,5.60
2023-05-10T21:27:35.144Z,5.53
2023-05-10T21:30:02.256Z,5.28
2023-05-10T21:32:29.091Z,5.22
2023-05-10T21:34:57.146Z,5.40
2023-05-10T21:37:24.357Z,5.07
2023-05-10T21:39:52.800Z,5.30
2023-05-10T21:42:20.366Z,4.97
2023-05-10T21:44:49.526Z,5.70
2023-05-10T21:47:17.800Z,5.47
2023-05-10T21:49:46.001Z,5.47
2023-05-10T21:52:13.988Z,5.32
2023-05-10T21:54:41.893Z,5.50
2023-05-10T21:57:08.840Z,5.85
2023-05-10T21:59:37.975Z,5.00
2023-05-10T22:02:04.877Z,5.57
2023-05-10T22:04:31.867Z,4.97
2023-05-10T22:06:59.836Z,5.18
2023-05-10T22:09:26.945Z,5.68
2023-05-10T22:11:53.696Z,5.43
2023-05-10T22:14:22.920Z,5.97
2023-05-10T22:17:05.977Z,6.07
2023-05-10T22:19:34.236Z,6.43
2023-05-10T22:22:03.833Z,5.93
2023-05-10T22:24:31.315Z,5.80
2023-05-10T22:26:59.744Z,6.65
2023-05-10T22:29:26.557Z,6.82
2023-05-10T22:31:53.409Z,6.95
2023-05-10T22:34:20.756Z,7.32
2023-05-10T22:36:48.939Z,7.07
2023-05-10T22:39:16.697Z,7.03
2023-05-10T22:41:43.742Z,6.70
2023-05-10T22:44:13.144Z,7.30
2023-05-10T22:46:40.546Z,7.10
2023-05-10T22:49:08.143Z,7.35
2023-05-10T22:51:35.208Z,7.78
2023-05-10T22:54:02.515Z,7.55
2023-05-10T22:56:29.586Z,7.82
2023-05-10T22:58:57.585Z,7.35
2023-05-10T23:01:27.068Z,7.82
2023-05-10T23:03:54.391Z,7.80
2023-05-10T23:06:24.952Z,7.90
2023-05-10T23:08:57.190Z,7.68
2023-05-10T23:13:51.490Z,7.30
2023-05-10T23:16:18.946Z,7.32
2023-05-10T23:18:47.406Z,8.00
2023-05-10T23:21:14.306Z,8.23
2023-05-10T23:23:41.696Z,8.38
2023-05-10T23:26:09.039Z,8.13
2023-05-10T23:28:36.488Z,8.90
2023-05-10T23:31:03.647Z,8.07
2023-05-10T23:33:33.664Z,8.27
2023-05-10T23:36:01.095Z,8.73
2023-05-10T23:41:08.728Z,8.55
2023-05-10T23:43:36.096Z,8.77
2023-05-10T23:46:05.665Z,8.40
2023-05-10T23:48:33.880Z,9.02
2023-05-10T23:51:07.827Z,8.98
2023-05-10T23:53:34.983Z,8.65
2023-05-10T23:56:02.167Z,8.52
2023-05-10T23:58:30.675Z,9.00
